Time,TemperatureF,DewpointF,PressureIn,WindDirection,WindDirectionDegrees,WindSpeedMPH,WindSpeedGustMPH,Humidity,HourlyPrecipIn,Conditions,Clouds,dailyrainin,SoftwareType,DateUTC
2013-04-16 00:22:00,38.0,13.0,29.66,WNW,300,8.0,18.0,35,0.00,,,-99.99,,2013-04-16 07:22:00,
2013-04-16 00:32:00,38.0,13.0,29.66,WNW,300,8.0,18.0,35,0.00,,,-99.99,,2013-04-16 07:32:00,
2013-04-16 00:42:00,38.0,13.0,29.66,WNW,300,8.0,18.0,35,0.00,,,-99.99,,2013-04-16 07:42:00,
2013-04-16 02:22:00,36.0,6.0,29.69,NNW,330,10.0,22.0,28,0.00,,,-99.99,,2013-04-16 09:22:00,
2013-04-16 02:32:00,36.0,6.0,29.69,NNW,330,10.0,22.0,28,0.00,,,-99.99,,2013-04-16 09:32:00,
2013-04-16 03:22:00,33.0,12.0,29.69,WNW,290,4.0,14.0,41,0.00,,,-99.99,,2013-04-16 10:22:00,
2013-04-16 03:32:00,33.0,12.0,29.69,WNW,290,4.0,14.0,41,0.00,,,-99.99,,2013-04-16 10:32:00,
2013-04-16 03:42:00,33.0,12.0,29.69,WNW,290,4.0,14.0,41,0.00,,,-99.99,,2013-04-16 10:42:00,
2013-04-16 04:22:00,34.0,9.0,29.67,NNW,340,6.0,16.0,35,0.00,,,-99.99,,2013-04-16 11:22:00,
2013-04-16 04:32:00,34.0,9.0,29.67,NNW,340,6.0,16.0,35,0.00,,,-99.99,,2013-04-16 11:32:00,
2013-04-16 04:42:00,34.0,9.0,29.67,NNW,340,6.0,16.0,35,0.00,,,-99.99,,2013-04-16 11:42:00,
2013-04-16 05:22:00,33.0,3.0,29.70,West,260,8.0,18.0,28,0.00,,,-99.99,,2013-04-16 12:22:00,
2013-04-16 05:32:00,33.0,3.0,29.70,West,260,8.0,18.0,28,0.00,,,-99.99,,2013-04-16 12:32:00,
2013-04-16 06:22:00,36.0,-9.0,29.72,WSW,250,9.0,17.0,14,0.00,,,-99.99,,2013-04-16 13:22:00,
2013-04-16 06:32:00,36.0,-9.0,29.72,WSW,250,9.0,17.0,14,0.00,,,-99.99,,2013-04-16 13:32:00,
2013-04-16 07:22:00,37.0,-14.0,29.75,WNW,290,5.0,18.0,10,0.00,,,-99.99,,2013-04-16 14:22:00,
2013-04-16 07:32:00,37.0,-14.0,29.75,WNW,290,5.0,18.0,10,0.00,,,-99.99,,2013-04-16 14:32:00,
2013-04-16 08:22:00,37.0,6.0,29.80,North,350,5.0,14.0,27,0.00,,,-99.99,,2013-04-16 15:22:00,
2013-04-16 08:32:00,37.0,6.0,29.80,North,350,5.0,14.0,27,0.00,,,-99.99,,2013-04-16 15:32:00,
2013-04-16 08:43:00,37.0,6.0,29.80,North,350,5.0,14.0,27,0.00,,,-99.99,,2013-04-16 15:43:00,
2013-04-16 09:23:00,38.0,7.0,29.80,NNW,330,7.0,13.0,27,0.00,,,-99.99,,2013-04-16 16:23:00,
2013-04-16 09:32:00,38.0,7.0,29.80,NNW,330,7.0,13.0,27,0.00,,,-99.99,,2013-04-16 16:32:00,
2013-04-16 10:22:00,39.0,9.0,29.81,WSW,250,6.0,14.0,28,0.00,,,-99.99,,2013-04-16 17:22:00,
2013-04-16 10:32:00,39.0,9.0,29.81,WSW,250,6.0,14.0,28,0.00,,,-99.99,,2013-04-16 17:32:00,
2013-04-16 10:43:00,39.0,9.0,29.81,WSW,250,6.0,14.0,28,0.00,,,-99.99,,2013-04-16 17:43:00,
2013-04-16 11:22:00,38.0,8.0,29.82,NNW,330,8.0,16.0,28,0.00,,,-99.99,,2013-04-16 18:22:00,
2013-04-16 11:32:00,38.0,8.0,29.82,NNW,330,8.0,16.0,28,0.00,,,-99.99,,2013-04-16 18:32:00,
2013-04-16 11:42:00,38.0,8.0,29.82,NNW,330,8.0,16.0,28,0.00,,,-99.99,,2013-04-16 18:42:00,
2013-04-16 12:22:00,39.0,9.0,29.82,WNW,300,4.0,14.0,28,0.00,,,-99.99,,2013-04-16 19:22:00,
2013-04-16 12:32:00,39.0,9.0,29.82,WNW,300,4.0,14.0,28,0.00,,,-99.99,,2013-04-16 19:32:00,
2013-04-16 12:42:00,39.0,9.0,29.82,WNW,300,4.0,14.0,28,0.00,,,-99.99,,2013-04-16 19:42:00,
2013-04-16 13:22:00,40.0,9.0,29.84,NW,320,7.0,19.0,27,0.00,,,-99.99,,2013-04-16 20:22:00,
2013-04-16 13:32:00,40.0,9.0,29.84,NW,320,7.0,19.0,27,0.00,,,-99.99,,2013-04-16 20:32:00,
2013-04-16 13:42:00,40.0,9.0,29.84,NW,320,7.0,19.0,27,0.00,,,-99.99,,2013-04-16 20:42:00,
2013-04-16 14:22:00,40.0,10.0,29.85,SW,230,8.0,18.0,28,0.00,,,-99.99,,2013-04-16 21:22:00,
2013-04-16 14:32:00,40.0,10.0,29.85,SW,230,8.0,18.0,28,0.00,,,-99.99,,2013-04-16 21:32:00,
2013-04-16 14:43:00,40.0,10.0,29.85,SW,230,8.0,18.0,28,0.00,,,-99.99,,2013-04-16 21:43:00,
2013-04-16 15:22:00,41.0,10.0,29.86,NNE,30,5.0,16.0,27,0.00,,,-99.99,,2013-04-16 22:22:00,
2013-04-16 15:32:00,41.0,10.0,29.86,NNE,30,5.0,16.0,27,0.00,,,-99.99,,2013-04-16 22:32:00,
2013-04-16 15:42:00,41.0,10.0,29.86,NNE,30,5.0,16.0,27,0.00,,,-99.99,,2013-04-16 22:42:00,
2013-04-16 16:22:00,39.0,19.0,29.89,WSW,250,6.0,17.0,45,0.00,,,-99.99,,2013-04-16 23:22:00,
2013-04-16 16:32:00,39.0,19.0,29.89,WSW,250,6.0,17.0,45,0.00,,,-99.99,,2013-04-16 23:32:00,
2013-04-16 16:42:00,39.0,19.0,29.89,WSW,250,6.0,17.0,45,0.00,,,-99.99,,2013-04-16 23:42:00,
2013-04-16 17:22:00,38.0,22.0,29.88,WSW,240,4.0,13.0,52,0.00,,,-99.99,,2013-04-17 00:22:00,
2013-04-16 17:32:00,38.0,22.0,29.88,WSW,240,4.0,13.0,52,0.00,,,-99.99,,2013-04-17 00:32:00,
2013-04-16 17:42:00,38.0,22.0,29.88,WSW,240,4.0,13.0,52,0.00,,,-99.99,,2013-04-17 00:42:00,
2013-04-16 18:22:00,36.0,23.0,29.89,NW,310,3.0,8.0,59,0.00,,,-99.99,,2013-04-17 01:22:00,
2013-04-16 18:32:00,36.0,23.0,29.89,NW,310,3.0,8.0,59,0.00,,,-99.99,,2013-04-17 01:32:00,
2013-04-16 18:42:00,36.0,23.0,29.89,NW,310,3.0,8.0,59,0.00,,,-99.99,,2013-04-17 01:42:00,
2013-04-16 19:22:00,33.0,11.0,29.92,North,350,8.0,19.0,39,0.00,,,-99.99,,2013-04-17 02:22:00,
2013-04-16 19:32:00,33.0,11.0,29.92,North,350,8.0,19.0,39,0.00,,,-99.99,,2013-04-17 02:32:00,
2013-04-16 19:42:00,33.0,11.0,29.92,North,350,8.0,19.0,39,0.00,,,-99.99,,2013-04-17 02:42:00,
2013-04-16 20:22:00,31.0,12.0,29.96,WNW,300,3.0,18.0,44,0.00,,,-99.99,,2013-04-17 03:22:00,
2013-04-16 20:32:00,31.0,12.0,29.96,WNW,300,3.0,18.0,44,0.00,,,-99.99,,2013-04-17 03:32:00,
2013-04-16 20:42:00,31.0,12.0,29.96,WNW,300,3.0,18.0,44,0.00,,,-99.99,,2013-04-17 03:42:00,
2013-04-16 21:22:00,29.0,12.0,29.98,West,280,3.0,12.0,49,0.00,,,-99.99,,2013-04-17 04:22:00,
2013-04-16 21:33:00,29.0,12.0,29.98,West,280,3.0,12.0,49,0.00,,,-99.99,,2013-04-17 04:33:00,
2013-04-16 21:42:00,29.0,12.0,29.98,West,280,3.0,12.0,49,0.00,,,-99.99,,2013-04-17 04:42:00,
2013-04-16 22:22:00,28.0,11.0,30.02,West,270,4.0,14.0,49,0.00,,,-99.99,,2013-04-17 05:22:00,
2013-04-16 22:32:00,28.0,11.0,30.02,West,270,4.0,14.0,49,0.00,,,-99.99,,2013-04-17 05:32:00,
2013-04-16 22:42:00,28.0,11.0,30.02,West,270,4.0,14.0,49,0.00,,,-99.99,,2013-04-17 05:42:00,
2013-04-16 23:22:00,28.0,14.0,30.01,NW,310,4.0,11.0,54,0.00,,,-99.99,,2013-04-17 06:22:00,
2013-04-16 23:32:00,28.0,14.0,30.01,NW,310,4.0,11.0,54,0.00,,,-99.99,,2013-04-17 06:32:00,
2013-04-16 23:42:00,28.0,14.0,30.01,NW,310,4.0,11.0,54,0.00,,,-99.99,,2013-04-17 06:42:00,